BAW46EZ EGLL-LEMD
Flight info
| Callsign | BAW46EZ |
|---|---|
| Flight time | 1h 42m |
| Altitude | 31000 |
| Route | GASGU2J GASGU N866 SAM M195 IBNID/N0448F330 M195 MARUK N621 LELNA DCT NOVAN DCT DELOG N864 NONTU NONTU4C |
| Aircraft | B772/H-SDE1E3FGHIJ3J5J6M1M2P2RWXYZ/LB1D1 |
Departure
| Time | 2026-05-04 23:01 |
|---|---|
| Airport | London Heathrow Airport (EGLL) |
Arrival
| Time | 2026-05-05 00:43 |
|---|---|
| Airport | Adolfo Suárez Madrid–Barajas Airport (LEMD) |
| Time | Latitude | Longitude | Altitude | Speed | Heading |
|---|---|---|---|---|---|
| 2026-05-04 22:18 | 51.46982 | -0.47493 | 89 ft | 0 kts | 270° |
| 2026-05-04 22:45 | 51.46982 | -0.47476 | 90 ft | 1 kts | 270° |
| 2026-05-04 22:45 | 51.46984 | -0.47437 | 90 ft | 2 kts | 251° |
| 2026-05-04 22:45 | 51.46990 | -0.47415 | 90 ft | 2 kts | 240° |
| 2026-05-04 22:46 | 51.46999 | -0.47396 | 90 ft | 2 kts | 229° |
| 2026-05-04 22:46 | 51.47009 | -0.47379 | 90 ft | 2 kts | 217° |
| 2026-05-04 22:46 | 51.47022 | -0.47366 | 90 ft | 2 kts | 206° |
| 2026-05-04 22:46 | 51.47036 | -0.47358 | 90 ft | 2 kts | 194° |
| 2026-05-04 22:47 | 51.47050 | -0.47354 | 90 ft | 2 kts | 183° |
| 2026-05-04 22:47 | 51.47049 | -0.47354 | 90 ft | 3 kts | 181° |
| 2026-05-04 22:47 | 51.47008 | -0.47354 | 90 ft | 5 kts | 180° |
| 2026-05-04 22:47 | 51.46984 | -0.47354 | 90 ft | 1 kts | 180° |
| 2026-05-04 22:48 | 51.46983 | -0.47354 | 90 ft | 0 kts | 180° |
| 2026-05-04 22:50 | 51.46977 | -0.47354 | 90 ft | 3 kts | 180° |
| 2026-05-04 22:50 | 51.46922 | -0.47353 | 90 ft | 11 kts | 180° |
| 2026-05-04 22:50 | 51.46815 | -0.47352 | 90 ft | 19 kts | 180° |
| 2026-05-04 22:50 | 51.46698 | -0.47350 | 90 ft | 10 kts | 180° |
| 2026-05-04 22:51 | 51.46655 | -0.47433 | 90 ft | 12 kts | 262° |
| 2026-05-04 22:51 | 51.46654 | -0.47593 | 90 ft | 15 kts | 269° |
| 2026-05-04 22:51 | 51.46653 | -0.47782 | 90 ft | 18 kts | 270° |
| 2026-05-04 22:51 | 51.46652 | -0.47992 | 90 ft | 16 kts | 269° |
| 2026-05-04 22:52 | 51.46652 | -0.48070 | 90 ft | 0 kts | 270° |
| 2026-05-04 22:53 | 51.46652 | -0.48071 | 90 ft | 1 kts | 270° |
| 2026-05-04 22:54 | 51.46652 | -0.48123 | 90 ft | 8 kts | 270° |
| 2026-05-04 22:54 | 51.46652 | -0.48253 | 90 ft | 14 kts | 270° |
| 2026-05-04 22:54 | 51.46651 | -0.48436 | 90 ft | 14 kts | 270° |
| 2026-05-04 22:54 | 51.46651 | -0.48532 | 90 ft | 1 kts | 270° |
| 2026-05-04 22:55 | 51.46651 | -0.48561 | 90 ft | 3 kts | 270° |
| 2026-05-04 22:55 | 51.46651 | -0.48588 | 90 ft | 0 kts | 270° |
| 2026-05-04 22:58 | 51.46651 | -0.48592 | 90 ft | 1 kts | 270° |
| 2026-05-04 22:58 | 51.46651 | -0.48635 | 90 ft | 5 kts | 270° |
| 2026-05-04 22:58 | 51.46647 | -0.48719 | 90 ft | 8 kts | 247° |
| 2026-05-04 22:58 | 51.46612 | -0.48760 | 90 ft | 0 kts | 200° |
| 2026-05-04 22:59 | 51.46611 | -0.48760 | 90 ft | 0 kts | 200° |
| 2026-05-04 22:59 | 51.46588 | -0.48774 | 90 ft | 7 kts | 201° |
| 2026-05-04 22:59 | 51.46518 | -0.48778 | 90 ft | 13 kts | 156° |
| 2026-05-04 23:00 | 51.46476 | -0.48664 | 90 ft | 8 kts | 92° |
| 2026-05-04 23:00 | 51.46476 | -0.48645 | 90 ft | 0 kts | 88° |
| 2026-05-04 23:00 | 51.46477 | -0.48557 | 90 ft | 23 kts | 90° |
| 2026-05-04 23:00 | 51.46480 | -0.47811 | 90 ft | 108 kts | 89° |
| 2026-05-04 23:01 | 51.46483 | -0.46250 | 143 ft | 166 kts | 90° |
| 2026-05-04 23:01 | 51.46485 | -0.44452 | 950 ft | 162 kts | 87° |
| 2026-05-04 23:01 | 51.46531 | -0.42608 | 1577 ft | 172 kts | 86° |
| 2026-05-04 23:01 | 51.46349 | -0.40643 | 2061 ft | 191 kts | 110° |
| 2026-05-04 23:02 | 51.45569 | -0.38777 | 2589 ft | 212 kts | 129° |
| 2026-05-04 23:02 | 51.44567 | -0.36978 | 3150 ft | 228 kts | 128° |
| 2026-05-04 23:02 | 51.43567 | -0.34901 | 3716 ft | 243 kts | 128° |
| 2026-05-04 23:02 | 51.42229 | -0.33152 | 4305 ft | 260 kts | 154° |
| 2026-05-04 23:03 | 51.40453 | -0.32514 | 5062 ft | 268 kts | 182° |
| 2026-05-04 23:03 | 51.38682 | -0.33261 | 5908 ft | 269 kts | 210° |
| 2026-05-04 23:03 | 51.37188 | -0.35045 | 6716 ft | 271 kts | 223° |
| 2026-05-04 23:03 | 51.35799 | -0.37062 | 7491 ft | 275 kts | 224° |
| 2026-05-04 23:04 | 51.34387 | -0.39129 | 8277 ft | 279 kts | 223° |
| 2026-05-04 23:04 | 51.32966 | -0.41189 | 9046 ft | 282 kts | 223° |
| 2026-05-04 23:04 | 51.31530 | -0.43344 | 9808 ft | 285 kts | 230° |
| 2026-05-04 23:04 | 51.30475 | -0.46040 | 10556 ft | 288 kts | 246° |
| 2026-05-04 23:05 | 51.29781 | -0.48989 | 11379 ft | 288 kts | 253° |
| 2026-05-04 23:05 | 51.29186 | -0.52091 | 12061 ft | 296 kts | 254° |
| 2026-05-04 23:05 | 51.28614 | -0.55228 | 12788 ft | 300 kts | 255° |
| 2026-05-04 23:05 | 51.28024 | -0.58452 | 13563 ft | 304 kts | 253° |
| 2026-05-04 23:06 | 51.27392 | -0.61698 | 14326 ft | 309 kts | 252° |
| 2026-05-04 23:06 | 51.26751 | -0.64968 | 14813 ft | 325 kts | 252° |
| 2026-05-04 23:06 | 51.26045 | -0.68582 | 14817 ft | 356 kts | 252° |
| 2026-05-04 23:06 | 51.25278 | -0.72517 | 14832 ft | 385 kts | 252° |
| 2026-05-04 23:07 | 51.24462 | -0.76705 | 15098 ft | 404 kts | 252° |
| 2026-05-04 23:07 | 51.23632 | -0.80959 | 16256 ft | 398 kts | 252° |
| 2026-05-04 23:07 | 51.22825 | -0.85083 | 17543 ft | 389 kts | 252° |
| 2026-05-04 23:07 | 51.22043 | -0.89065 | 18776 ft | 380 kts | 252° |
| 2026-05-04 23:08 | 51.21177 | -0.92995 | 19869 ft | 373 kts | 244° |
| 2026-05-04 23:08 | 51.19876 | -0.96489 | 20658 ft | 373 kts | 231° |
| 2026-05-04 23:08 | 51.18137 | -0.99603 | 21354 ft | 376 kts | 224° |
| 2026-05-04 23:08 | 51.16316 | -1.02542 | 22142 ft | 377 kts | 223° |
| 2026-05-04 23:09 | 51.14460 | -1.05460 | 22950 ft | 377 kts | 223° |
| 2026-05-04 23:09 | 51.12598 | -1.08360 | 23697 ft | 379 kts | 223° |
| 2026-05-04 23:09 | 51.10715 | -1.11279 | 24423 ft | 381 kts | 223° |
| 2026-05-04 23:09 | 51.08782 | -1.14260 | 25080 ft | 385 kts | 222° |
| 2026-05-04 23:10 | 51.06874 | -1.17194 | 25691 ft | 389 kts | 222° |
| 2026-05-04 23:10 | 51.04914 | -1.20199 | 26312 ft | 392 kts | 222° |
| 2026-05-04 23:10 | 51.02951 | -1.23203 | 27013 ft | 393 kts | 222° |
| 2026-05-04 23:10 | 51.00927 | -1.26295 | 27624 ft | 396 kts | 222° |
| 2026-05-04 23:11 | 50.98925 | -1.29347 | 28184 ft | 399 kts | 222° |
| 2026-05-04 23:11 | 50.96944 | -1.32364 | 28767 ft | 401 kts | 222° |
| 2026-05-04 23:11 | 50.94806 | -1.35227 | 29333 ft | 402 kts | 214° |
| 2026-05-04 23:11 | 50.92506 | -1.37687 | 29889 ft | 403 kts | 212° |
| 2026-05-04 23:12 | 50.90153 | -1.40139 | 30428 ft | 405 kts | 212° |
| 2026-05-04 23:12 | 50.87775 | -1.42611 | 30954 ft | 408 kts | 212° |
| 2026-05-04 23:12 | 50.85401 | -1.45077 | 31429 ft | 410 kts | 212° |
| 2026-05-04 23:12 | 50.83023 | -1.47545 | 31799 ft | 415 kts | 212° |
| 2026-05-04 23:13 | 50.80597 | -1.50059 | 32067 ft | 422 kts | 212° |
| 2026-05-04 23:13 | 50.78099 | -1.52646 | 32142 ft | 434 kts | 212° |
| 2026-05-04 23:13 | 50.75548 | -1.55285 | 32260 ft | 444 kts | 212° |
| 2026-05-04 23:13 | 50.72965 | -1.57954 | 32390 ft | 454 kts | 212° |
| 2026-05-04 23:14 | 50.70293 | -1.60712 | 32513 ft | 458 kts | 212° |
| 2026-05-04 23:14 | 50.67576 | -1.63284 | 32621 ft | 456 kts | 206° |
| 2026-05-04 23:14 | 50.64674 | -1.65396 | 32751 ft | 457 kts | 202° |
| 2026-05-04 23:14 | 50.61799 | -1.67393 | 32848 ft | 455 kts | 202° |
| 2026-05-04 23:15 | 50.58889 | -1.69408 | 32983 ft | 458 kts | 202° |
| 2026-05-04 23:15 | 50.55978 | -1.71421 | 33100 ft | 456 kts | 202° |
| 2026-05-04 23:15 | 50.53055 | -1.73438 | 33225 ft | 458 kts | 202° |
| 2026-05-04 23:15 | 50.50136 | -1.75450 | 33335 ft | 458 kts | 202° |
| 2026-05-04 23:16 | 50.47230 | -1.77449 | 33464 ft | 459 kts | 202° |
| 2026-05-04 23:16 | 50.44317 | -1.79451 | 33644 ft | 463 kts | 202° |
| 2026-05-04 23:16 | 50.41368 | -1.81473 | 34057 ft | 463 kts | 202° |
| 2026-05-04 23:16 | 50.38445 | -1.83476 | 34558 ft | 459 kts | 202° |
| 2026-05-04 23:17 | 50.35512 | -1.85482 | 35062 ft | 458 kts | 202° |
| 2026-05-04 23:17 | 50.32617 | -1.87458 | 35371 ft | 460 kts | 202° |
| 2026-05-04 23:17 | 50.29672 | -1.89465 | 35721 ft | 463 kts | 202° |
| 2026-05-04 23:17 | 50.26717 | -1.91475 | 36047 ft | 464 kts | 202° |
| 2026-05-04 23:18 | 50.23796 | -1.93459 | 36389 ft | 465 kts | 202° |
| 2026-05-04 23:18 | 50.20842 | -1.95463 | 36755 ft | 465 kts | 202° |
| 2026-05-04 23:18 | 50.17883 | -1.97466 | 37049 ft | 465 kts | 202° |
| 2026-05-04 23:18 | 50.14921 | -1.99467 | 37380 ft | 464 kts | 202° |
| 2026-05-04 23:19 | 50.11949 | -2.01471 | 37658 ft | 464 kts | 202° |
| 2026-05-04 23:19 | 50.08987 | -2.03465 | 37848 ft | 467 kts | 202° |
| 2026-05-04 23:19 | 50.06003 | -2.05469 | 38008 ft | 471 kts | 202° |
| 2026-05-04 23:19 | 50.03005 | -2.07479 | 38225 ft | 472 kts | 202° |
| 2026-05-04 23:20 | 49.99991 | -2.09492 | 38484 ft | 472 kts | 202° |
| 2026-05-04 23:20 | 49.96936 | -2.11263 | 38687 ft | 472 kts | 197° |
| 2026-05-04 23:20 | 49.93838 | -2.12741 | 38899 ft | 473 kts | 196° |
| 2026-05-04 23:20 | 49.90683 | -2.14216 | 39153 ft | 472 kts | 196° |
| 2026-05-04 23:21 | 49.87557 | -2.15675 | 39399 ft | 471 kts | 196° |
| 2026-05-04 23:21 | 49.84434 | -2.17130 | 39640 ft | 471 kts | 196° |
| 2026-05-04 23:21 | 49.81295 | -2.18591 | 39861 ft | 471 kts | 196° |
| 2026-05-04 23:21 | 49.78133 | -2.20061 | 40032 ft | 472 kts | 196° |
| 2026-05-04 23:22 | 49.74994 | -2.21520 | 40228 ft | 472 kts | 197° |
| 2026-05-04 23:22 | 49.71856 | -2.22976 | 40386 ft | 472 kts | 197° |
| 2026-05-04 23:22 | 49.68751 | -2.24414 | 40531 ft | 473 kts | 197° |
| 2026-05-04 23:22 | 49.65612 | -2.25867 | 40679 ft | 473 kts | 197° |
| 2026-05-04 23:23 | 49.62469 | -2.27320 | 40828 ft | 472 kts | 197° |
| 2026-05-04 23:23 | 49.59338 | -2.28765 | 40967 ft | 473 kts | 197° |
| 2026-05-04 23:23 | 49.53033 | -2.31669 | 41012 ft | 475 kts | 197° |
| 2026-05-04 23:24 | 49.46732 | -2.34564 | 41010 ft | 474 kts | 197° |
| 2026-05-04 23:24 | 49.40426 | -2.37453 | 41009 ft | 473 kts | 197° |
| 2026-05-04 23:25 | 49.34166 | -2.40314 | 41013 ft | 473 kts | 197° |
| 2026-05-04 23:25 | 49.27836 | -2.43199 | 41019 ft | 474 kts | 197° |
| 2026-05-04 23:26 | 49.21565 | -2.46049 | 40997 ft | 473 kts | 197° |
| 2026-05-04 23:26 | 49.15263 | -2.48906 | 41005 ft | 475 kts | 197° |
| 2026-05-04 23:27 | 49.08942 | -2.51764 | 40974 ft | 474 kts | 197° |
| 2026-05-04 23:27 | 49.02618 | -2.54615 | 40987 ft | 474 kts | 197° |
| 2026-05-04 23:28 | 48.96302 | -2.57456 | 40962 ft | 475 kts | 197° |
| 2026-05-04 23:28 | 48.89975 | -2.60294 | 40995 ft | 476 kts | 197° |
| 2026-05-04 23:29 | 48.83602 | -2.63145 | 40985 ft | 474 kts | 197° |
| 2026-05-04 23:29 | 48.77288 | -2.65962 | 40984 ft | 474 kts | 196° |
| 2026-05-04 23:30 | 48.71026 | -2.68748 | 40978 ft | 473 kts | 196° |
| 2026-05-04 23:30 | 48.64708 | -2.71548 | 40968 ft | 475 kts | 196° |
| 2026-05-04 23:31 | 48.58385 | -2.74342 | 41007 ft | 474 kts | 195° |
| 2026-05-04 23:31 | 48.52066 | -2.77128 | 41003 ft | 475 kts | 196° |
| 2026-05-04 23:32 | 48.45758 | -2.79905 | 40985 ft | 474 kts | 196° |
| 2026-05-04 23:32 | 48.39421 | -2.82687 | 40982 ft | 475 kts | 196° |
| 2026-05-04 23:33 | 48.33143 | -2.85438 | 40971 ft | 474 kts | 196° |
| 2026-05-04 23:33 | 48.26798 | -2.88210 | 40963 ft | 474 kts | 196° |
| 2026-05-04 23:34 | 48.20500 | -2.90955 | 40942 ft | 473 kts | 196° |
| 2026-05-04 23:34 | 48.14182 | -2.93702 | 40975 ft | 476 kts | 196° |
| 2026-05-04 23:35 | 48.07848 | -2.96448 | 40956 ft | 474 kts | 196° |
| 2026-05-04 23:35 | 48.01550 | -2.99172 | 40965 ft | 472 kts | 196° |
| 2026-05-04 23:36 | 47.95262 | -3.01885 | 40960 ft | 475 kts | 196° |
| 2026-05-04 23:36 | 47.88946 | -3.04602 | 40979 ft | 474 kts | 196° |
| 2026-05-04 23:37 | 47.82578 | -3.07336 | 40958 ft | 474 kts | 196° |
| 2026-05-04 23:37 | 47.76296 | -3.10025 | 40969 ft | 473 kts | 196° |
| 2026-05-04 23:38 | 47.69964 | -3.12729 | 40977 ft | 474 kts | 196° |
| 2026-05-04 23:38 | 47.63633 | -3.15426 | 40963 ft | 473 kts | 196° |
| 2026-05-04 23:39 | 47.57343 | -3.18099 | 40966 ft | 473 kts | 196° |
| 2026-05-04 23:39 | 47.51036 | -3.20772 | 40963 ft | 474 kts | 196° |
| 2026-05-04 23:40 | 47.44695 | -3.23453 | 40960 ft | 472 kts | 196° |
| 2026-05-04 23:40 | 47.38390 | -3.26112 | 40956 ft | 474 kts | 196° |
| 2026-05-04 23:41 | 47.32084 | -3.28764 | 40965 ft | 473 kts | 196° |
| 2026-05-04 23:41 | 47.25759 | -3.31419 | 40960 ft | 473 kts | 196° |
| 2026-05-04 23:42 | 47.19476 | -3.34049 | 40964 ft | 474 kts | 196° |
| 2026-05-04 23:42 | 47.13163 | -3.36685 | 40967 ft | 473 kts | 196° |
| 2026-05-04 23:43 | 47.06819 | -3.39328 | 40968 ft | 475 kts | 196° |
| 2026-05-04 23:43 | 47.00481 | -3.41961 | 40971 ft | 473 kts | 196° |
| 2026-05-04 23:44 | 46.94173 | -3.44575 | 40982 ft | 473 kts | 196° |
| 2026-05-04 23:44 | 46.87846 | -3.47191 | 40972 ft | 473 kts | 196° |
| 2026-05-04 23:45 | 46.81535 | -3.49794 | 40980 ft | 472 kts | 196° |
| 2026-05-04 23:45 | 46.75255 | -3.52378 | 40979 ft | 471 kts | 196° |
| 2026-05-04 23:46 | 46.68908 | -3.54983 | 40971 ft | 474 kts | 196° |
| 2026-05-04 23:46 | 46.62603 | -3.57565 | 40995 ft | 474 kts | 196° |
| 2026-05-04 23:47 | 46.56302 | -3.60139 | 40980 ft | 471 kts | 196° |
| 2026-05-04 23:47 | 46.49990 | -3.62710 | 40987 ft | 474 kts | 196° |
| 2026-05-04 23:48 | 46.43652 | -3.65287 | 40982 ft | 473 kts | 195° |
| 2026-05-04 23:48 | 46.37320 | -3.67855 | 40979 ft | 473 kts | 195° |
| 2026-05-04 23:49 | 46.30933 | -3.70039 | 40972 ft | 473 kts | 187° |
| 2026-05-04 23:49 | 46.24403 | -3.71072 | 40993 ft | 474 kts | 186° |
| 2026-05-04 23:50 | 46.17876 | -3.72054 | 40983 ft | 473 kts | 186° |
| 2026-05-04 23:50 | 46.11334 | -3.73032 | 40984 ft | 472 kts | 186° |
| 2026-05-04 23:51 | 46.04806 | -3.74004 | 40971 ft | 473 kts | 186° |
| 2026-05-04 23:51 | 45.98296 | -3.74970 | 40988 ft | 474 kts | 186° |
| 2026-05-04 23:52 | 45.91730 | -3.75941 | 40985 ft | 474 kts | 186° |
| 2026-05-04 23:52 | 45.85212 | -3.76903 | 41000 ft | 474 kts | 186° |
| 2026-05-04 23:53 | 45.78645 | -3.77870 | 40998 ft | 475 kts | 186° |
| 2026-05-04 23:53 | 45.72094 | -3.78831 | 40988 ft | 472 kts | 186° |
| 2026-05-04 23:54 | 45.65602 | -3.79782 | 40992 ft | 473 kts | 186° |
| 2026-05-04 23:54 | 45.59052 | -3.80740 | 40993 ft | 472 kts | 187° |
| 2026-05-04 23:55 | 45.52541 | -3.81689 | 40992 ft | 473 kts | 186° |
| 2026-05-04 23:56 | 45.42744 | -3.83113 | 40990 ft | 472 kts | 187° |
| 2026-05-04 23:56 | 45.36200 | -3.84062 | 40988 ft | 472 kts | 187° |
| 2026-05-04 23:57 | 45.29691 | -3.85003 | 40986 ft | 471 kts | 187° |
| 2026-05-04 23:57 | 45.23146 | -3.85947 | 40991 ft | 473 kts | 187° |
| 2026-05-04 23:58 | 45.16667 | -3.86879 | 40987 ft | 471 kts | 187° |
| 2026-05-04 23:58 | 45.10157 | -3.87814 | 40990 ft | 472 kts | 187° |
| 2026-05-04 23:59 | 45.03640 | -3.88748 | 40988 ft | 473 kts | 187° |
| 2026-05-04 23:59 | 44.97082 | -3.89686 | 40990 ft | 471 kts | 187° |
| 2026-05-05 00:00 | 44.90622 | -3.90607 | 40990 ft | 472 kts | 187° |
| 2026-05-05 00:00 | 44.84066 | -3.91540 | 40995 ft | 471 kts | 187° |
| 2026-05-05 00:01 | 44.77572 | -3.92462 | 40999 ft | 471 kts | 187° |
| 2026-05-05 00:01 | 44.71074 | -3.93383 | 40998 ft | 470 kts | 187° |
| 2026-05-05 00:02 | 44.64581 | -3.94301 | 40995 ft | 472 kts | 187° |
| 2026-05-05 00:02 | 44.58061 | -3.95220 | 40989 ft | 470 kts | 187° |
| 2026-05-05 00:03 | 44.51551 | -3.96136 | 40988 ft | 471 kts | 187° |
| 2026-05-05 00:03 | 44.45041 | -3.97050 | 41000 ft | 470 kts | 187° |
| 2026-05-05 00:04 | 44.38571 | -3.97956 | 41006 ft | 470 kts | 188° |
| 2026-05-05 00:04 | 44.32034 | -3.98614 | 40999 ft | 471 kts | 180° |
| 2026-05-05 00:05 | 44.25516 | -3.98038 | 41004 ft | 474 kts | 178° |
| 2026-05-05 00:05 | 44.18936 | -3.97388 | 41006 ft | 472 kts | 178° |
| 2026-05-05 00:06 | 44.12414 | -3.96749 | 41016 ft | 473 kts | 178° |
| 2026-05-05 00:06 | 44.05857 | -3.96108 | 41011 ft | 473 kts | 178° |
| 2026-05-05 00:07 | 43.99325 | -3.95472 | 41023 ft | 472 kts | 178° |
| 2026-05-05 00:07 | 43.92777 | -3.94836 | 41007 ft | 471 kts | 178° |
| 2026-05-05 00:08 | 43.86238 | -3.94203 | 41013 ft | 473 kts | 178° |
| 2026-05-05 00:08 | 43.79673 | -3.93568 | 41020 ft | 473 kts | 178° |
| 2026-05-05 00:09 | 43.73133 | -3.92938 | 41023 ft | 474 kts | 178° |
| 2026-05-05 00:09 | 43.66574 | -3.92307 | 41042 ft | 472 kts | 179° |
| 2026-05-05 00:10 | 43.60022 | -3.91680 | 41027 ft | 472 kts | 178° |
| 2026-05-05 00:10 | 43.53529 | -3.91058 | 41055 ft | 471 kts | 178° |
| 2026-05-05 00:11 | 43.46955 | -3.90432 | 41045 ft | 471 kts | 179° |
| 2026-05-05 00:11 | 43.40498 | -3.90893 | 41054 ft | 469 kts | 188° |
| 2026-05-05 00:12 | 43.34008 | -3.91861 | 41053 ft | 467 kts | 188° |
| 2026-05-05 00:12 | 43.27563 | -3.92821 | 41046 ft | 470 kts | 188° |
| 2026-05-05 00:13 | 43.21073 | -3.93782 | 41010 ft | 468 kts | 189° |
| 2026-05-05 00:13 | 43.14635 | -3.94733 | 41009 ft | 468 kts | 189° |
| 2026-05-05 00:14 | 43.08176 | -3.95684 | 41020 ft | 468 kts | 188° |
| 2026-05-05 00:14 | 43.01725 | -3.96631 | 41006 ft | 466 kts | 189° |
| 2026-05-05 00:15 | 42.95268 | -3.97577 | 41000 ft | 466 kts | 188° |
| 2026-05-05 00:15 | 42.88830 | -3.98519 | 41010 ft | 466 kts | 189° |
| 2026-05-05 00:16 | 42.82385 | -3.99459 | 40983 ft | 468 kts | 189° |
| 2026-05-05 00:16 | 42.75903 | -4.00403 | 41007 ft | 468 kts | 189° |
| 2026-05-05 00:17 | 42.69476 | -4.01336 | 40996 ft | 467 kts | 189° |
| 2026-05-05 00:17 | 42.63027 | -4.02271 | 41013 ft | 468 kts | 189° |
| 2026-05-05 00:18 | 42.56576 | -4.03203 | 41003 ft | 466 kts | 189° |
| 2026-05-05 00:18 | 42.50133 | -4.04134 | 41011 ft | 465 kts | 189° |
| 2026-05-05 00:18 | 42.46919 | -4.04597 | 40852 ft | 468 kts | 189° |
| 2026-05-05 00:19 | 42.43704 | -4.05061 | 40587 ft | 469 kts | 189° |
| 2026-05-05 00:19 | 42.40482 | -4.05524 | 40348 ft | 467 kts | 189° |
| 2026-05-05 00:19 | 42.37281 | -4.05983 | 40103 ft | 463 kts | 189° |
| 2026-05-05 00:19 | 42.34080 | -4.06442 | 39844 ft | 464 kts | 189° |
| 2026-05-05 00:20 | 42.30830 | -4.06909 | 39418 ft | 468 kts | 189° |
| 2026-05-05 00:20 | 42.27630 | -4.07368 | 38922 ft | 470 kts | 190° |
| 2026-05-05 00:20 | 42.24369 | -4.07834 | 38039 ft | 471 kts | 190° |
| 2026-05-05 00:20 | 42.21122 | -4.08299 | 37146 ft | 474 kts | 190° |
| 2026-05-05 00:21 | 42.17848 | -4.08767 | 36271 ft | 477 kts | 190° |
| 2026-05-05 00:21 | 42.14566 | -4.09236 | 35381 ft | 480 kts | 190° |
| 2026-05-05 00:21 | 42.11259 | -4.09706 | 34417 ft | 478 kts | 190° |
| 2026-05-05 00:21 | 42.08001 | -4.10169 | 33500 ft | 474 kts | 191° |
| 2026-05-05 00:22 | 42.04725 | -4.10633 | 32651 ft | 471 kts | 191° |
| 2026-05-05 00:22 | 42.01499 | -4.11084 | 31705 ft | 470 kts | 191° |
| 2026-05-05 00:22 | 41.98261 | -4.11461 | 30784 ft | 468 kts | 190° |
| 2026-05-05 00:22 | 41.95054 | -4.11816 | 30137 ft | 456 kts | 191° |
| 2026-05-05 00:23 | 41.91939 | -4.12162 | 29662 ft | 446 kts | 190° |
| 2026-05-05 00:23 | 41.88865 | -4.12507 | 29087 ft | 442 kts | 190° |
| 2026-05-05 00:23 | 41.85831 | -4.12850 | 28476 ft | 438 kts | 190° |
| 2026-05-05 00:23 | 41.82845 | -4.13187 | 27902 ft | 433 kts | 191° |
| 2026-05-05 00:24 | 41.79853 | -4.13525 | 27342 ft | 429 kts | 190° |
| 2026-05-05 00:24 | 41.76889 | -4.13861 | 26750 ft | 424 kts | 191° |
| 2026-05-05 00:24 | 41.73980 | -4.14190 | 26180 ft | 419 kts | 191° |
| 2026-05-05 00:24 | 41.71108 | -4.14515 | 25631 ft | 414 kts | 191° |
| 2026-05-05 00:25 | 41.68236 | -4.14840 | 25067 ft | 410 kts | 190° |
| 2026-05-05 00:25 | 41.65409 | -4.15160 | 24450 ft | 406 kts | 190° |
| 2026-05-05 00:25 | 41.62642 | -4.15473 | 23840 ft | 401 kts | 190° |
| 2026-05-05 00:25 | 41.59894 | -4.15783 | 23231 ft | 396 kts | 190° |
| 2026-05-05 00:26 | 41.57170 | -4.16090 | 22673 ft | 390 kts | 190° |
| 2026-05-05 00:26 | 41.54475 | -4.16394 | 22106 ft | 384 kts | 190° |
| 2026-05-05 00:26 | 41.51825 | -4.16693 | 21564 ft | 380 kts | 189° |
| 2026-05-05 00:26 | 41.49223 | -4.16987 | 21005 ft | 376 kts | 190° |
| 2026-05-05 00:27 | 41.46579 | -4.17288 | 20388 ft | 387 kts | 189° |
| 2026-05-05 00:27 | 41.43916 | -4.17589 | 19838 ft | 388 kts | 189° |
| 2026-05-05 00:27 | 41.41217 | -4.17892 | 19250 ft | 385 kts | 189° |
| 2026-05-05 00:27 | 41.38585 | -4.18185 | 19080 ft | 369 kts | 189° |
| 2026-05-05 00:28 | 41.36113 | -4.18459 | 19000 ft | 353 kts | 189° |
| 2026-05-05 00:28 | 41.33703 | -4.18727 | 18888 ft | 338 kts | 189° |
| 2026-05-05 00:28 | 41.31408 | -4.18984 | 18752 ft | 326 kts | 190° |
| 2026-05-05 00:28 | 41.29208 | -4.19203 | 18605 ft | 316 kts | 185° |
| 2026-05-05 00:29 | 41.27050 | -4.18707 | 18451 ft | 316 kts | 165° |
| 2026-05-05 00:29 | 41.25144 | -4.17203 | 18165 ft | 321 kts | 146° |
| 2026-05-05 00:29 | 41.23504 | -4.15188 | 17721 ft | 325 kts | 140° |
| 2026-05-05 00:29 | 41.21922 | -4.13037 | 17315 ft | 326 kts | 139° |
| 2026-05-05 00:30 | 41.20375 | -4.10882 | 16916 ft | 326 kts | 139° |
| 2026-05-05 00:30 | 41.18815 | -4.08705 | 16477 ft | 325 kts | 138° |
| 2026-05-05 00:30 | 41.17272 | -4.06553 | 16102 ft | 323 kts | 138° |
| 2026-05-05 00:30 | 41.15725 | -4.04399 | 15732 ft | 322 kts | 138° |
| 2026-05-05 00:31 | 41.14190 | -4.02262 | 15342 ft | 321 kts | 138° |
| 2026-05-05 00:31 | 41.12644 | -4.00113 | 14951 ft | 320 kts | 138° |
| 2026-05-05 00:31 | 41.11087 | -3.98021 | 14620 ft | 314 kts | 143° |
| 2026-05-05 00:31 | 41.09424 | -3.96203 | 14261 ft | 311 kts | 146° |
| 2026-05-05 00:32 | 41.07740 | -3.94437 | 13806 ft | 313 kts | 146° |
| 2026-05-05 00:32 | 41.06036 | -3.92656 | 13446 ft | 312 kts | 146° |
| 2026-05-05 00:32 | 41.04333 | -3.90878 | 13055 ft | 311 kts | 145° |
| 2026-05-05 00:32 | 41.02634 | -3.89103 | 12663 ft | 307 kts | 145° |
| 2026-05-05 00:33 | 41.00977 | -3.87374 | 12300 ft | 302 kts | 145° |
| 2026-05-05 00:33 | 40.99350 | -3.85678 | 11936 ft | 298 kts | 145° |
| 2026-05-05 00:33 | 40.97735 | -3.83994 | 11544 ft | 292 kts | 145° |
| 2026-05-05 00:33 | 40.96163 | -3.82356 | 11176 ft | 287 kts | 145° |
| 2026-05-05 00:34 | 40.94593 | -3.80723 | 10791 ft | 282 kts | 145° |
| 2026-05-05 00:34 | 40.93077 | -3.79146 | 10419 ft | 278 kts | 144° |
| 2026-05-05 00:34 | 40.91580 | -3.77590 | 10055 ft | 274 kts | 144° |
| 2026-05-05 00:34 | 40.90095 | -3.76048 | 9711 ft | 269 kts | 144° |
| 2026-05-05 00:35 | 40.88640 | -3.74537 | 9417 ft | 259 kts | 144° |
| 2026-05-05 00:35 | 40.87261 | -3.73106 | 9100 ft | 249 kts | 144° |
| 2026-05-05 00:35 | 40.85909 | -3.71703 | 8764 ft | 242 kts | 144° |
| 2026-05-05 00:35 | 40.84621 | -3.70369 | 8461 ft | 230 kts | 144° |
| 2026-05-05 00:36 | 40.83405 | -3.69107 | 8179 ft | 220 kts | 144° |
| 2026-05-05 00:36 | 40.82215 | -3.67876 | 7904 ft | 214 kts | 144° |
| 2026-05-05 00:36 | 40.81057 | -3.66678 | 7603 ft | 210 kts | 144° |
| 2026-05-05 00:36 | 40.79916 | -3.65499 | 7321 ft | 206 kts | 144° |
| 2026-05-05 00:37 | 40.78808 | -3.64355 | 7062 ft | 203 kts | 144° |
| 2026-05-05 00:37 | 40.77693 | -3.63204 | 6814 ft | 201 kts | 144° |
| 2026-05-05 00:37 | 40.76601 | -3.62078 | 6567 ft | 200 kts | 144° |
| 2026-05-05 00:37 | 40.75499 | -3.60942 | 6310 ft | 200 kts | 143° |
| 2026-05-05 00:38 | 40.74410 | -3.59820 | 6066 ft | 201 kts | 143° |
| 2026-05-05 00:38 | 40.73310 | -3.58688 | 5853 ft | 198 kts | 143° |
| 2026-05-05 00:38 | 40.72223 | -3.57567 | 5731 ft | 200 kts | 142° |
| 2026-05-05 00:38 | 40.71077 | -3.56482 | 5529 ft | 202 kts | 155° |
| 2026-05-05 00:39 | 40.69731 | -3.56062 | 5261 ft | 198 kts | 176° |
| 2026-05-05 00:39 | 40.68362 | -3.56016 | 4998 ft | 196 kts | 181° |
| 2026-05-05 00:39 | 40.67005 | -3.56023 | 4751 ft | 195 kts | 181° |
| 2026-05-05 00:39 | 40.65660 | -3.56017 | 4489 ft | 194 kts | 181° |
| 2026-05-05 00:40 | 40.64322 | -3.56006 | 4229 ft | 192 kts | 181° |
| 2026-05-05 00:40 | 40.63021 | -3.55996 | 3976 ft | 180 kts | 181° |
| 2026-05-05 00:40 | 40.61792 | -3.55988 | 3740 ft | 174 kts | 181° |
| 2026-05-05 00:40 | 40.60597 | -3.55981 | 3509 ft | 170 kts | 181° |
| 2026-05-05 00:41 | 40.59425 | -3.55973 | 3283 ft | 162 kts | 181° |
| 2026-05-05 00:41 | 40.58337 | -3.55967 | 3067 ft | 152 kts | 181° |
| 2026-05-05 00:41 | 40.57304 | -3.55962 | 2860 ft | 147 kts | 181° |
| 2026-05-05 00:41 | 40.56287 | -3.55956 | 2658 ft | 145 kts | 181° |
| 2026-05-05 00:42 | 40.55278 | -3.55929 | 2451 ft | 144 kts | 180° |
| 2026-05-05 00:42 | 40.54271 | -3.55928 | 2255 ft | 143 kts | 180° |
| 2026-05-05 00:42 | 40.53286 | -3.55932 | 2051 ft | 141 kts | 180° |
| 2026-05-05 00:42 | 40.52317 | -3.55934 | 1931 ft | 133 kts | 179° |
| 2026-05-05 00:43 | 40.51490 | -3.55928 | 1926 ft | 101 kts | 179° |
| 2026-05-05 00:43 | 40.50912 | -3.55925 | 1921 ft | 65 kts | 180° |
| 2026-05-05 00:43 | 40.50568 | -3.55932 | 1924 ft | 38 kts | 191° |
| 2026-05-05 00:43 | 40.50401 | -3.56010 | 1929 ft | 17 kts | 209° |
| 2026-05-05 00:44 | 40.50288 | -3.56095 | 1930 ft | 18 kts | 210° |
| 2026-05-05 00:44 | 40.50216 | -3.56137 | 1930 ft | 12 kts | 194° |
| 2026-05-05 00:44 | 40.50102 | -3.56147 | 1930 ft | 20 kts | 178° |
| 2026-05-05 00:44 | 40.49941 | -3.56145 | 1927 ft | 25 kts | 180° |
| 2026-05-05 00:45 | 40.49761 | -3.56146 | 1927 ft | 26 kts | 179° |
| 2026-05-05 00:45 | 40.49569 | -3.56144 | 1930 ft | 27 kts | 179° |
| 2026-05-05 00:45 | 40.49373 | -3.56143 | 1934 ft | 28 kts | 179° |
| 2026-05-05 00:45 | 40.49180 | -3.56140 | 1940 ft | 27 kts | 179° |
| 2026-05-05 00:46 | 40.48989 | -3.56139 | 1943 ft | 27 kts | 180° |
| 2026-05-05 00:46 | 40.48830 | -3.56138 | 1946 ft | 14 kts | 181° |
| 2026-05-05 00:46 | 40.48772 | -3.56220 | 1952 ft | 12 kts | 261° |
| 2026-05-05 00:46 | 40.48769 | -3.56325 | 1956 ft | 11 kts | 269° |
| 2026-05-05 00:47 | 40.48768 | -3.56434 | 1962 ft | 11 kts | 269° |
| 2026-05-05 00:47 | 40.48768 | -3.56548 | 1967 ft | 13 kts | 270° |
| 2026-05-05 00:47 | 40.48768 | -3.56687 | 1973 ft | 16 kts | 269° |
| 2026-05-05 00:47 | 40.48768 | -3.56846 | 1979 ft | 18 kts | 269° |
| 2026-05-05 00:48 | 40.48778 | -3.56978 | 1984 ft | 10 kts | 310° |
| 2026-05-05 00:48 | 40.48853 | -3.57002 | 1984 ft | 7 kts | 4° |
| 2026-05-05 00:48 | 40.48870 | -3.56925 | 1980 ft | 13 kts | 95° |
| 2026-05-05 00:48 | 40.48895 | -3.56872 | 1978 ft | 9 kts | 27° |
| 2026-05-05 00:49 | 40.48941 | -3.56836 | 1975 ft | 5 kts | 32° |
| 2026-05-05 00:49 | 40.48950 | -3.56828 | 1975 ft | 0 kts | 32° |